Time;durP1;ratioP1;P1;durP2;ratioP2;P2;SDS_P1;SDS_P2;PMS_P1;PMS_P2;Temp;Humidity;BMP_temperature;BMP_pressure;BME280_temperature;BME280_humidity;BME280_pressure;Samples;Min_cycle;Max_cycle;Signal;HPM_P1;HPM_P2
2023/09/05 00:00:30;;;;;;;5.10;2.60;;;;;;;23.52;41.23;101024.97;5116717;28;20540;-70
2023/09/05 00:02:58;;;;;;;5.25;2.65;;;;;;;23.51;41.31;101030.56;5119397;28;20122;-70
2023/09/05 00:05:26;;;;;;;4.57;2.58;;;;;;;23.50;41.19;101028.88;5122640;28;20051;-70
2023/09/05 00:07:55;;;;;;;4.68;2.58;;;;;;;23.47;41.35;101032.78;5122836;28;20047;-70
2023/09/05 00:10:25;;;;;;;4.07;2.42;;;;;;;23.46;41.28;101024.78;5122517;28;20120;-70
2023/09/05 00:12:53;;;;;;;4.95;2.50;;;;;;;23.45;41.42;101017.59;5123220;28;20051;-70
2023/09/05 00:15:21;;;;;;;4.82;2.60;;;;;;;23.41;41.44;101017.91;5123343;28;20044;-70
2023/09/05 00:17:50;;;;;;;3.35;2.15;;;;;;;23.39;41.54;101019.94;5120346;28;20072;-71
2023/09/05 00:20:18;;;;;;;3.75;2.50;;;;;;;23.40;41.49;101018.91;5120215;28;20130;-71
2023/09/05 00:22:46;;;;;;;5.22;2.70;;;;;;;23.38;41.59;101012.78;5119234;28;20099;-69
2023/09/05 00:25:15;;;;;;;4.53;2.67;;;;;;;23.35;41.72;101007.63;5118006;28;20051;-69
2023/09/05 00:27:45;;;;;;;4.20;2.60;;;;;;;23.34;41.68;101011.38;5118330;28;20464;-70
2023/09/05 00:30:14;;;;;;;4.55;2.70;;;;;;;23.32;41.86;101002.50;5098066;28;20044;-69
2023/09/05 00:32:43;;;;;;;5.03;2.40;;;;;;;23.30;41.78;100999.09;5113788;28;20442;-69
2023/09/05 00:35:13;;;;;;;4.28;2.78;;;;;;;23.31;41.82;100998.09;5113723;28;20047;-68
2023/09/05 00:37:41;;;;;;;5.10;2.50;;;;;;;23.30;41.88;100999.09;5113598;28;20136;-70
2023/09/05 00:40:11;;;;;;;4.07;2.47;;;;;;;23.29;42.15;100997.41;5113524;28;20067;-69
2023/09/05 00:42:39;;;;;;;4.50;2.70;;;;;;;23.29;41.92;100997.41;5113600;28;20082;-69
2023/09/05 00:45:10;;;;;;;3.70;2.40;;;;;;;23.27;41.97;100991.25;5113492;28;20051;-69
2023/09/05 00:47:40;;;;;;;4.30;2.60;;;;;;;23.24;41.97;100988.81;5113429;28;20481;-69
2023/09/05 00:50:10;;;;;;;4.25;2.70;;;;;;;23.24;41.98;100988.81;5112984;28;20063;-70
2023/09/05 00:52:39;;;;;;;4.00;2.42;;;;;;;23.24;42.27;100988.81;5113485;28;20405;-69
2023/09/05 00:55:08;;;;;;;5.55;3.03;;;;;;;23.22;42.23;100993.56;5113118;28;20504;-69
2023/09/05 00:57:37;;;;;;;4.35;2.42;;;;;;;23.23;42.25;100986.25;5113259;28;20071;-69
2023/09/05 01:00:08;;;;;;;4.47;3.00;;;;;;;23.22;42.31;100981.84;5112927;28;20442;-70
2023/09/05 01:02:38;;;;;;;5.60;2.83;;;;;;;23.20;42.38;100981.16;5112960;28;20047;-70
2023/09/05 01:05:07;;;;;;;4.80;2.58;;;;;;;23.17;42.52;100985.03;5112892;28;20104;-69
2023/09/05 01:07:51;;;;;;;4.50;2.90;;;;;;;23.17;42.48;100984.19;5113146;28;20131;-70
2023/09/05 01:10:27;;;;;;;4.45;2.55;;;;;;;23.16;42.47;100975.13;5112560;28;20456;-70
2023/09/05 01:12:59;;;;;;;4.82;2.70;;;;;;;23.15;42.44;100973.44;5113042;28;20040;-70
2023/09/05 01:15:27;;;;;;;5.00;2.67;;;;;;;23.16;42.55;100983.31;5112616;28;20148;-70
2023/09/05 01:17:57;;;;;;;3.95;2.60;;;;;;;23.14;42.68;100979.88;5112835;28;20086;-69
2023/09/05 01:20:38;;;;;;;5.10;2.70;;;;;;;23.12;42.64;100968.31;5112634;28;20170;-69
2023/09/05 01:23:13;;;;;;;6.78;2.75;;;;;;;23.11;42.68;100969.31;5112656;28;20048;-69
2023/09/05 01:25:43;;;;;;;3.85;2.47;;;;;;;23.09;42.70;100974.06;5112338;28;20114;-69
2023/09/05 01:28:12;;;;;;;4.75;2.50;;;;;;;23.08;42.76;100978.66;5112704;28;20039;-69
2023/09/05 01:30:41;;;;;;;4.72;2.80;;;;;;;23.07;42.96;100973.38;5112709;28;20051;-69
2023/09/05 01:33:12;;;;;;;4.93;2.75;;;;;;;23.07;42.74;100976.09;5112890;28;20049;-69
2023/09/05 01:35:40;;;;;;;4.60;2.50;;;;;;;23.06;42.95;100977.09;5112360;28;20484;-70
2023/09/05 01:38:09;;;;;;;5.28;2.83;;;;;;;23.05;42.89;100978.09;5112349;28;20043;-70
2023/09/05 01:40:37;;;;;;;4.20;2.70;;;;;;;23.04;43.02;100979.13;5112209;28;20055;-69
2023/09/05 01:43:07;;;;;;;3.70;2.40;;;;;;;23.03;43.01;100978.25;5112351;28;20044;-70
2023/09/05 01:45:35;;;;;;;3.97;2.70;;;;;;;23.00;43.02;100975.00;5112373;28;20048;-70
2023/09/05 01:48:03;;;;;;;4.13;2.47;;;;;;;23.00;42.91;100980.44;5112113;28;20051;-70
2023/09/05 01:50:33;;;;;;;4.57;2.50;;;;;;;23.00;43.16;100975.00;5112392;28;20134;-71
2023/09/05 01:53:01;;;;;;;3.92;2.70;;;;;;;22.98;43.10;100979.75;5112151;28;20051;-69
2023/09/05 01:55:29;;;;;;;5.43;2.80;;;;;;;22.98;43.11;100977.03;5112264;28;20373;-69
2023/09/05 01:57:58;;;;;;;4.30;2.80;;;;;;;22.96;43.11;100971.72;5111981;28;20130;-69
2023/09/05 02:00:27;;;;;;;5.05;3.00;;;;;;;22.97;43.13;100969.84;5112289;28;20079;-71
2023/09/05 02:02:55;;;;;;;5.03;2.90;;;;;;;22.95;43.36;100969.16;5112354;28;20605;-69
2023/09/05 02:05:24;;;;;;;4.45;2.63;;;;;;;22.95;43.32;100970.00;5111973;28;20051;-69
2023/09/05 02:07:52;;;;;;;5.13;2.70;;;;;;;22.93;43.41;100968.47;5112152;28;20047;-70
2023/09/05 02:10:20;;;;;;;4.60;2.70;;;;;;;22.94;43.35;100967.47;5112030;28;20047;-69
2023/09/05 02:12:49;;;;;;;4.35;2.40;;;;;;;22.94;43.38;100967.47;5093933;28;20139;-69
2023/09/05 02:15:17;;;;;;;4.65;2.85;;;;;;;22.91;43.30;100965.06;5112019;28;20089;-70
2023/09/05 02:17:47;;;;;;;4.80;2.40;;;;;;;22.91;43.52;100967.78;5111820;28;20170;-69
2023/09/05 02:20:15;;;;;;;4.70;2.97;;;;;;;22.89;43.66;100967.09;5111870;28;20047;-70
2023/09/05 02:22:44;;;;;;;5.85;2.80;;;;;;;22.87;43.40;100966.34;5112115;28;20185;-69
2023/09/05 02:25:12;;;;;;;4.43;2.65;;;;;;;22.85;43.61;100972.81;5112246;28;20051;-69
2023/09/05 02:27:41;;;;;;;4.93;2.78;;;;;;;22.87;43.50;100969.06;5113708;28;20081;-70
2023/09/05 02:30:10;;;;;;;4.53;2.83;;;;;;;22.85;43.48;100966.50;5112097;28;20046;-70
2023/09/05 02:32:38;;;;;;;4.28;2.70;;;;;;;22.85;43.53;100966.50;5111755;28;20119;-70
2023/09/05 02:35:09;;;;;;;4.95;3.10;;;;;;;22.82;43.67;100962.22;5112097;28;20044;-70
2023/09/05 02:37:40;;;;;;;5.20;2.78;;;;;;;22.81;43.74;100963.22;5111889;28;20905;-70
2023/09/05 02:40:09;;;;;;;5.35;3.03;;;;;;;22.79;43.70;100973.41;5111747;28;20057;-68
2023/09/05 02:42:38;;;;;;;4.07;2.83;;;;;;;22.76;43.77;100978.28;5111522;28;20488;-69
2023/09/05 02:45:08;;;;;;;5.53;2.75;;;;;;;22.76;43.97;100979.13;5111690;28;20039;-70
2023/09/05 02:47:36;;;;;;;4.03;2.65;;;;;;;22.76;43.90;100979.13;5111723;28;20472;-69
2023/09/05 02:50:05;;;;;;;4.70;2.90;;;;;;;22.75;44.14;100988.31;5111640;28;20048;-69
2023/09/05 02:52:35;;;;;;;4.07;2.72;;;;;;;22.75;43.88;100985.59;5111919;28;20048;-70
2023/09/05 02:55:15;;;;;;;3.88;2.53;;;;;;;22.74;44.04;100985.75;5112751;28;20040;-69
2023/09/05 02:57:44;;;;;;;5.10;2.70;;;;;;;22.72;44.06;100977.75;5111396;28;20491;-69
2023/09/05 03:00:13;;;;;;;5.20;3.03;;;;;;;22.74;44.03;100986.59;5111531;28;20373;-69
2023/09/05 03:02:43;;;;;;;4.43;2.80;;;;;;;22.72;44.15;100980.47;5111727;28;20047;-70
2023/09/05 03:05:13;;;;;;;4.05;2.70;;;;;;;22.72;44.03;100979.59;5111390;28;20488;-70
2023/09/05 03:07:43;;;;;;;4.40;2.80;;;;;;;22.69;43.92;100988.94;5111582;28;20075;-70
2023/09/05 03:10:11;;;;;;;3.95;2.67;;;;;;;22.68;44.13;100987.22;5111118;28;20059;-69
2023/09/05 03:12:40;;;;;;;5.00;2.90;;;;;;;22.67;44.16;100985.50;5112992;28;20048;-70
2023/09/05 03:15:09;;;;;;;4.43;2.60;;;;;;;22.67;44.07;100985.50;5115410;28;20097;-69
2023/09/05 03:17:37;;;;;;;5.47;2.80;;;;;;;22.65;44.14;100983.94;5115068;28;20140;-70
2023/09/05 03:20:07;;;;;;;4.15;2.80;;;;;;;22.66;44.36;100988.38;5114844;28;20044;-70
2023/09/05 03:22:36;;;;;;;4.78;2.70;;;;;;;22.64;44.23;100991.25;5114811;28;20092;-69
2023/09/05 03:25:06;;;;;;;4.43;2.67;;;;;;;22.64;44.16;100993.97;5114753;28;20043;-70
2023/09/05 03:27:34;;;;;;;3.92;2.60;;;;;;;22.66;44.09;100999.25;5114575;28;20070;-68
2023/09/05 03:30:03;;;;;;;4.65;2.97;;;;;;;22.65;44.18;101003.81;5114665;28;20050;-69
2023/09/05 03:32:31;;;;;;;5.57;2.90;;;;;;;22.66;44.15;101001.97;5114679;28;20093;-69
2023/09/05 03:34:59;;;;;;;4.70;2.90;;;;;;;22.63;44.23;101003.13;5114594;28;20480;-70
2023/09/05 03:37:28;;;;;;;5.03;2.75;;;;;;;22.61;44.16;100994.28;5114558;28;20048;-69
2023/09/05 03:39:56;;;;;;;4.40;2.70;;;;;;;22.62;44.17;101000.56;5115278;28;20083;-70
2023/09/05 03:42:26;;;;;;;6.20;2.83;;;;;;;22.61;44.28;101001.59;5114552;28;20526;-69
2023/09/05 03:44:54;;;;;;;5.22;2.97;;;;;;;22.61;44.18;101005.16;5114405;28;20051;-69
2023/09/05 03:47:22;;;;;;;6.38;3.00;;;;;;;22.60;44.23;101002.59;5114480;28;20039;-70
2023/09/05 03:49:50;;;;;;;4.97;2.72;;;;;;;22.59;44.10;101009.91;5114172;28;20492;-70
2023/09/05 03:52:18;;;;;;;4.38;2.97;;;;;;;22.59;44.11;101009.91;5114211;28;20052;-70
2023/09/05 03:54:46;;;;;;;4.90;2.95;;;;;;;22.58;44.11;101002.72;5114482;28;20043;-69
2023/09/05 03:57:16;;;;;;;5.82;3.05;;;;;;;22.54;44.14;101004.91;5114321;28;20113;-70
2023/09/05 03:59:45;;;;;;;5.10;3.03;;;;;;;22.57;44.25;101014.59;5114029;28;20438;-70
2023/09/05 04:02:13;;;;;;;5.40;3.10;;;;;;;22.57;44.05;101011.88;5114093;28;20093;-70
2023/09/05 04:04:42;;;;;;;6.35;3.25;;;;;;;22.56;44.03;101012.91;5113981;28;20044;-70
2023/09/05 04:07:10;;;;;;;5.05;2.90;;;;;;;22.55;44.11;101008.47;5114099;28;20552;-70
2023/09/05 04:09:38;;;;;;;5.45;3.17;;;;;;;22.52;44.05;101014.22;5113908;28;20504;-70
2023/09/05 04:12:07;;;;;;;5.22;2.90;;;;;;;22.51;44.15;101012.50;5114167;28;20054;-70
2023/09/05 04:14:37;;;;;;;5.72;3.22;;;;;;;22.52;44.02;101019.66;5113828;28;20541;-69
2023/09/05 04:17:06;;;;;;;4.53;2.80;;;;;;;22.50;44.07;101019.81;5113626;28;20499;-70
2023/09/05 04:19:34;;;;;;;7.07;3.30;;;;;;;22.51;44.24;101026.09;5113938;28;20075;-70
2023/09/05 04:22:02;;;;;;;5.07;3.22;;;;;;;22.49;44.10;101025.41;5113741;28;20138;-70
2023/09/05 04:24:31;;;;;;;6.97;3.20;;;;;;;22.48;44.14;101019.06;5112348;28;20048;-69
2023/09/05 04:26:59;;;;;;;6.30;3.00;;;;;;;22.46;44.37;101025.69;5113482;28;20516;-69
2023/09/05 04:29:27;;;;;;;5.50;2.97;;;;;;;22.44;44.23;101023.13;5113370;28;20070;-69
2023/09/05 04:31:56;;;;;;;5.82;3.20;;;;;;;22.44;44.42;101030.41;5113259;28;20047;-70
2023/09/05 04:34:26;;;;;;;6.00;3.13;;;;;;;22.43;44.47;101031.44;5113729;28;20047;-69
2023/09/05 04:36:54;;;;;;;4.53;3.10;;;;;;;22.43;44.52;101026.84;5113593;28;20096;-70
2023/09/05 04:39:22;;;;;;;6.22;2.92;;;;;;;22.42;44.49;101029.72;5113508;28;20079;-70
2023/09/05 04:41:50;;;;;;;6.38;3.10;;;;;;;22.41;44.64;101031.59;5113141;28;20047;-70
2023/09/05 04:44:19;;;;;;;7.43;2.85;;;;;;;22.39;44.52;101028.16;5113227;28;20079;-70
2023/09/05 04:46:47;;;;;;;6.63;3.30;;;;;;;22.38;44.47;101034.59;5113427;28;20085;-70
2023/09/05 04:49:15;;;;;;;5.25;3.20;;;;;;;22.39;44.42;101035.44;5113343;28;20092;-70
2023/09/05 04:51:45;;;;;;;5.57;3.17;;;;;;;22.38;44.72;101037.28;5113215;28;20096;-70
2023/09/05 04:54:13;;;;;;;6.38;2.92;;;;;;;22.39;44.42;101039.03;5113255;28;20078;-70
2023/09/05 04:56:41;;;;;;;5.38;3.03;;;;;;;22.39;44.48;101041.75;5113367;28;20099;-70
2023/09/05 04:59:09;;;;;;;6.60;2.92;;;;;;;22.37;44.62;101032.00;5113198;28;20043;-70
2023/09/05 05:01:37;;;;;;;5.05;3.00;;;;;;;22.39;44.86;101035.44;5113129;28;20357;-68
2023/09/05 05:04:06;;;;;;;4.50;2.75;;;;;;;22.39;44.47;101035.44;5112796;28;20453;-70
2023/09/05 05:06:34;;;;;;;6.30;2.90;;;;;;;22.38;44.62;101044.59;5112919;28;20054;-70
2023/09/05 05:09:04;;;;;;;5.20;3.05;;;;;;;22.38;44.79;101045.44;5112724;28;20086;-71
2023/09/05 05:11:32;;;;;;;5.72;2.60;;;;;;;22.40;44.92;101043.47;5112209;28;20050;-71
2023/09/05 05:14:01;;;;;;;4.97;3.08;;;;;;;22.39;44.63;101047.19;5112783;28;20044;-70
2023/09/05 05:16:29;;;;;;;4.95;3.17;;;;;;;22.40;44.76;101048.03;5112700;28;20061;-70
2023/09/05 05:18:57;;;;;;;4.30;2.95;;;;;;;22.38;44.70;101044.59;5112451;28;20043;-71
2023/09/05 05:21:25;;;;;;;6.53;2.92;;;;;;;22.40;44.84;101048.91;5112390;28;20044;-71
2023/09/05 05:23:55;;;;;;;5.43;3.00;;;;;;;22.39;44.77;101047.19;5112548;28;20047;-70
2023/09/05 05:26:24;;;;;;;5.50;3.10;;;;;;;22.40;44.96;101053.47;5112195;28;20054;-70
2023/09/05 05:28:53;;;;;;;5.03;2.90;;;;;;;22.40;44.86;101045.31;5111881;28;20440;-69
2023/09/05 05:31:22;;;;;;;6.07;3.10;;;;;;;22.40;45.05;101039.91;5112155;28;20412;-70
2023/09/05 05:33:50;;;;;;;5.32;3.17;;;;;;;22.40;44.85;101040.75;5111982;28;20068;-70
2023/09/05 05:36:18;;;;;;;6.60;2.97;;;;;;;22.40;44.90;101040.75;5111329;28;20043;-69
2023/09/05 05:38:48;;;;;;;5.55;2.90;;;;;;;22.40;45.00;101050.75;5112068;28;20049;-70
2023/09/05 05:41:16;;;;;;;7.13;3.22;;;;;;;22.40;45.13;101042.59;5112098;28;20157;-69
2023/09/05 05:43:45;;;;;;;5.43;2.90;;;;;;;22.42;45.10;101046.03;5112146;28;20044;-69
2023/09/05 05:46:14;;;;;;;5.45;3.17;;;;;;;22.39;45.20;101046.31;5112148;28;20044;-69
2023/09/05 05:48:42;;;;;;;5.13;2.78;;;;;;;22.40;45.26;101039.91;5111807;28;20054;-70
2023/09/05 05:51:10;;;;;;;4.30;2.70;;;;;;;22.42;45.44;101040.59;5111901;28;20058;-68
2023/09/05 05:53:39;;;;;;;5.30;3.20;;;;;;;22.42;45.27;101046.03;5111934;28;20044;-69
2023/09/05 05:56:08;;;;;;;4.95;3.20;;;;;;;22.41;45.29;101044.31;5112094;28;20396;-69
2023/09/05 05:58:39;;;;;;;5.80;2.95;;;;;;;22.40;45.44;101042.59;5111667;28;20465;-69
2023/09/05 06:01:09;;;;;;;5.85;3.13;;;;;;;22.40;45.56;101048.03;5108970;28;20058;-69
2023/09/05 06:03:38;;;;;;;7.28;2.88;;;;;;;22.39;45.40;101049.03;5111399;28;20050;-69
2023/09/05 06:06:06;;;;;;;5.45;3.13;;;;;;;22.37;45.55;101041.03;5110979;28;20051;-69
2023/09/05 06:08:34;;;;;;;6.00;2.90;;;;;;;22.39;45.40;101046.31;5111720;28;20407;-69
2023/09/05 06:11:03;;;;;;;5.97;3.00;;;;;;;22.39;45.35;101043.59;5111089;28;20062;-69
2023/09/05 06:13:31;;;;;;;9.30;3.00;;;;;;;22.40;45.31;101042.59;5111455;28;20050;-69
2023/09/05 06:16:00;;;;;;;5.53;2.80;;;;;;;22.41;45.33;101044.31;5111548;28;20059;-69
2023/09/05 06:18:29;;;;;;;4.93;2.97;;;;;;;22.39;45.33;101030.00;5110986;28;20043;-69
2023/09/05 06:20:58;;;;;;;5.85;3.13;;;;;;;22.39;45.64;101040.88;5111478;28;20044;-69
2023/09/05 06:23:26;;;;;;;5.90;3.10;;;;;;;22.38;45.66;101034.59;5111192;28;20135;-69
2023/09/05 06:25:54;;;;;;;7.63;3.22;;;;;;;22.40;45.69;101037.19;5111615;28;20097;-69
2023/09/05 06:28:22;;;;;;;6.65;3.10;;;;;;;22.39;45.80;101043.59;5111548;28;20048;-68
2023/09/05 06:30:51;;;;;;;5.70;3.00;;;;;;;22.40;45.71;101037.19;5111606;28;20047;-69
2023/09/05 06:33:19;;;;;;;5.45;3.00;;;;;;;22.40;45.82;101045.31;5111815;28;20052;-69
2023/09/05 06:35:49;;;;;;;5.60;3.20;;;;;;;22.41;45.50;101049.75;5112296;28;20101;-69
2023/09/05 06:38:17;;;;;;;5.43;3.05;;;;;;;22.39;45.47;101046.31;5111878;28;20047;-67
2023/09/05 06:40:46;;;;;;;6.38;2.88;;;;;;;22.41;45.67;101056.03;5112012;28;20048;-69
2023/09/05 06:43:15;;;;;;;6.47;3.28;;;;;;;22.40;45.80;101050.75;5111332;28;20052;-68
2023/09/05 06:45:43;;;;;;;6.70;2.97;;;;;;;22.42;45.67;101056.91;5073633;28;20356;-67
2023/09/05 06:48:12;;;;;;;7.63;2.97;;;;;;;22.42;45.61;101051.47;5104813;28;20130;-68
2023/09/05 06:50:41;;;;;;;5.97;3.38;;;;;;;22.42;45.87;101051.47;5116027;28;20058;-68
2023/09/05 06:53:10;;;;;;;8.07;2.95;;;;;;;22.43;45.91;101064.03;5115649;28;20389;-68
2023/09/05 06:55:39;;;;;;;5.53;3.22;;;;;;;22.40;45.58;101048.91;5115404;28;20043;-69
2023/09/05 06:58:09;;;;;;;6.63;3.15;;;;;;;22.43;45.68;101058.63;5115046;28;20079;-69
2023/09/05 07:00:39;;;;;;;5.30;3.33;;;;;;;22.42;45.86;101057.75;5115817;28;20134;-68
2023/09/05 07:03:07;;;;;;;7.47;3.58;;;;;;;22.44;45.81;101052.16;5114884;28;20142;-67
2023/09/05 07:05:39;;;;;;;7.60;3.28;;;;;;;22.45;45.97;101049.28;5114969;28;20366;-69
2023/09/05 07:08:18;;;;;;;6.93;3.38;;;;;;;22.46;45.87;101052.88;5097029;28;20210;-68
2023/09/05 07:10:48;;;;;;;7.45;3.63;;;;;;;22.45;45.88;101053.88;5109183;28;20860;-67
2023/09/05 07:13:16;;;;;;;6.65;3.03;;;;;;;22.48;46.02;101056.28;5114742;28;20121;-69
2023/09/05 07:15:44;;;;;;;9.30;3.10;;;;;;;22.49;46.10;101058.03;5094854;28;20055;-68
2023/09/05 07:18:16;;;;;;;6.22;2.90;;;;;;;22.47;45.76;101054.56;5093330;28;20050;-69
2023/09/05 07:20:45;;;;;;;6.07;2.72;;;;;;;22.50;45.73;101063.31;5115291;28;20460;-67
2023/09/05 07:23:13;;;;;;;5.80;3.08;;;;;;;22.52;45.83;101065.88;5114944;28;20069;-69
2023/09/05 07:25:43;;;;;;;6.45;3.10;;;;;;;22.53;46.07;101062.13;5114821;28;20043;-69
2023/09/05 07:28:11;;;;;;;5.22;3.13;;;;;;;22.55;46.06;101068.28;5114633;28;20051;-69
2023/09/05 07:30:40;;;;;;;6.82;3.30;;;;;;;22.56;45.91;101070.00;5115158;28;20100;-69
2023/09/05 07:33:10;;;;;;;5.10;3.22;;;;;;;22.57;45.78;101067.13;5114778;28;20043;-70
2023/09/05 07:35:39;;;;;;;5.05;2.97;;;;;;;22.57;45.84;101071.69;5114626;28;20044;-68
2023/09/05 07:38:07;;;;;;;4.97;3.13;;;;;;;22.59;45.84;101072.44;5114241;28;20051;-70
2023/09/05 07:40:36;;;;;;;6.28;3.10;;;;;;;22.60;45.76;101079.56;5113521;28;20046;-69
2023/09/05 07:43:05;;;;;;;7.30;3.28;;;;;;;22.62;45.87;101069.41;5113188;28;20051;-70
2023/09/05 07:45:36;;;;;;;7.78;3.67;;;;;;;22.64;46.01;101071.97;5114058;28;20116;-70
2023/09/05 07:48:07;;;;;;;6.25;3.15;;;;;;;22.65;45.60;101065.50;5114140;28;20529;-70
2023/09/05 07:50:35;;;;;;;6.80;3.28;;;;;;;22.66;45.81;101076.22;5114376;28;20047;-71
2023/09/05 07:53:04;;;;;;;5.05;3.22;;;;;;;22.69;45.84;101073.25;5114693;28;20112;-69
2023/09/05 07:55:32;;;;;;;8.80;3.47;;;;;;;22.69;45.98;101081.41;5113970;28;20512;-69
2023/09/05 07:58:00;;;;;;;5.68;3.20;;;;;;;22.71;45.74;101079.38;5114587;28;20043;-70
2023/09/05 08:00:30;;;;;;;6.22;3.33;;;;;;;22.72;45.83;101072.94;5121778;28;20043;-69
2023/09/05 08:03:00;;;;;;;6.90;3.17;;;;;;;22.75;45.92;101080.78;5120325;28;20072;-70
2023/09/05 08:05:28;;;;;;;5.43;3.00;;;;;;;22.76;45.74;101079.75;5121345;28;20086;-69
2023/09/05 08:07:56;;;;;;;6.82;3.10;;;;;;;22.76;45.53;101074.31;5122947;28;20053;-71
2023/09/05 08:10:25;;;;;;;6.05;3.20;;;;;;;22.79;45.60;101078.63;5122947;28;20496;-71
2023/09/05 08:12:54;;;;;;;6.63;3.58;;;;;;;22.79;45.51;101074.03;5118318;28;20075;-70
2023/09/05 08:15:22;;;;;;;5.57;3.10;;;;;;;22.80;45.62;101067.59;5120421;28;20050;-69
2023/09/05 08:17:51;;;;;;;5.18;2.67;;;;;;;22.82;45.67;101070.16;5126712;28;20044;-70
2023/09/05 08:20:21;;;;;;;5.45;3.20;;;;;;;22.83;45.63;101066.41;5128268;28;20044;-70
2023/09/05 08:22:50;;;;;;;6.63;3.08;;;;;;;22.84;45.74;101063.56;5125196;28;20133;-70
2023/09/05 08:25:18;;;;;;;5.90;3.25;;;;;;;22.86;45.40;101060.69;5117641;28;20065;-70
2023/09/05 08:27:47;;;;;;;7.65;3.50;;;;;;;22.86;45.58;101066.13;5114094;28;20043;-70
2023/09/05 08:30:16;;;;;;;5.05;2.88;;;;;;;22.89;45.67;101065.00;5113621;28;20047;-70
2023/09/05 08:32:46;;;;;;;6.18;3.00;;;;;;;22.90;45.56;101064.00;5114378;28;20138;-70
2023/09/05 08:35:16;;;;;;;5.38;3.03;;;;;;;22.92;45.43;101065.53;5114773;28;20048;-70
2023/09/05 08:37:45;;;;;;;8.10;3.28;;;;;;;22.94;45.40;101057.22;5114691;28;20135;-70
2023/09/05 08:40:15;;;;;;;5.40;3.00;;;;;;;22.94;45.58;101057.22;5097750;28;20047;-69
2023/09/05 08:42:47;;;;;;;5.35;2.92;;;;;;;22.96;45.34;101049.75;5122090;28;20043;-70
2023/09/05 08:45:20;;;;;;;6.03;2.80;;;;;;;22.98;45.56;101055.94;5126567;28;20055;-69
2023/09/05 08:47:48;;;;;;;7.40;3.10;;;;;;;23.00;45.38;101059.34;5124251;28;20093;-69
2023/09/05 08:50:18;;;;;;;6.43;3.22;;;;;;;23.02;45.22;101054.59;5116546;28;20044;-70
2023/09/05 08:52:48;;;;;;;5.75;3.28;;;;;;;23.02;45.24;101050.00;5113617;28;20073;-70
2023/09/05 08:55:18;;;;;;;5.25;3.03;;;;;;;23.04;45.30;101047.13;5113286;28;20135;-69
2023/09/05 08:57:48;;;;;;;5.75;3.28;;;;;;;23.05;45.47;101048.84;5113526;28;20048;-69
2023/09/05 09:00:18;;;;;;;5.78;3.13;;;;;;;23.08;45.39;101048.56;5113362;28;20047;-69
2023/09/05 09:02:46;;;;;;;5.38;2.72;;;;;;;23.10;45.26;101043.81;5113187;28;21939;-69
2023/09/05 09:05:15;;;;;;;5.68;3.00;;;;;;;23.12;45.24;101042.63;5112540;28;20162;-68
2023/09/05 09:07:45;;;;;;;6.15;3.20;;;;;;;23.13;45.29;101032.59;5094699;28;20043;-68
2023/09/05 09:10:21;;;;;;;5.05;3.00;;;;;;;23.15;45.32;101033.28;5112572;28;20150;-69
2023/09/05 09:12:54;;;;;;;4.95;3.08;;;;;;;23.17;45.05;101031.31;5095568;28;20043;-69
2023/09/05 09:15:25;;;;;;;5.90;3.15;;;;;;;23.19;45.25;101023.84;5113160;28;20051;-70
2023/09/05 09:17:53;;;;;;;7.00;2.97;;;;;;;23.19;45.19;101023.84;5113038;28;20044;-69
2023/09/05 09:20:23;;;;;;;6.45;3.00;;;;;;;23.22;44.97;101015.34;5113138;28;20130;-70
2023/09/05 09:22:53;;;;;;;6.78;3.17;;;;;;;23.24;45.22;101016.03;5113767;28;20043;-70
2023/09/05 09:25:21;;;;;;;7.18;3.40;;;;;;;23.26;45.07;101016.75;5113390;28;20070;-68
2023/09/05 09:27:53;;;;;;;5.93;3.42;;;;;;;23.27;45.00;101015.75;5112884;28;20075;-69
2023/09/05 09:30:25;;;;;;;6.15;3.13;;;;;;;23.28;45.15;101006.56;5112475;28;20460;-69
2023/09/05 09:32:55;;;;;;;5.35;3.05;;;;;;;23.32;45.04;101012.53;5112421;28;20048;-68
2023/09/05 09:35:24;;;;;;;6.00;3.30;;;;;;;23.32;45.10;101007.97;5112498;28;20064;-70
2023/09/05 09:37:56;;;;;;;7.25;3.28;;;;;;;23.34;45.19;101000.47;5112456;28;20075;-69
2023/09/05 09:40:25;;;;;;;5.18;3.17;;;;;;;23.37;45.34;101000.19;5112401;28;20160;-69
2023/09/05 09:42:53;;;;;;;6.15;3.30;;;;;;;23.41;45.18;100989.84;5112139;28;20130;-70
2023/09/05 09:45:25;;;;;;;5.65;2.92;;;;;;;23.43;45.17;100983.22;5112360;28;20079;-69
2023/09/05 09:47:57;;;;;;;6.07;3.10;;;;;;;23.47;45.16;100993.81;5112481;28;20043;-69
2023/09/05 09:50:26;;;;;;;6.60;3.08;;;;;;;23.49;45.05;100983.59;5112443;28;20147;-69
2023/09/05 09:52:59;;;;;;;5.72;3.38;;;;;;;23.48;45.09;100984.63;5111849;28;20047;-70
2023/09/05 09:55:32;;;;;;;7.35;3.40;;;;;;;23.53;45.06;100993.16;5112245;28;20043;-70
2023/09/05 09:58:05;;;;;;;4.82;2.95;;;;;;;23.54;44.96;100990.25;5111906;28;20044;-69
2023/09/05 10:00:38;;;;;;;4.97;3.10;;;;;;;23.57;45.14;100989.13;5111720;28;20048;-68
2023/09/05 10:03:08;;;;;;;;;;;;;;;23.61;45.34;100998.69;5112440;28;20397;-69
2023/09/05 10:05:41;;;;;;;5.82;3.38;;;;;;;23.65;45.15;100986.50;5112277;28;19965;-69
2023/09/05 10:08:11;;;;;;;5.85;3.28;;;;;;;23.67;45.20;100989.91;5111933;28;20043;-70
2023/09/05 10:10:41;;;;;;;6.25;3.10;;;;;;;23.72;45.09;100982.09;5111498;28;20059;-69
2023/09/05 10:13:10;;;;;;;5.00;3.10;;;;;;;23.76;45.15;100983.50;5112013;28;20052;-69
2023/09/05 10:15:41;;;;;;;5.55;2.95;;;;;;;23.78;45.20;100973.28;5111727;28;20092;-69
2023/09/05 10:18:10;;;;;;;4.35;2.83;;;;;;;23.83;45.03;100975.53;5111589;28;20511;-69
2023/09/05 10:20:41;;;;;;;5.10;3.20;;;;;;;23.86;44.99;100975.22;5111748;28;20079;-69
2023/09/05 10:23:11;;;;;;;5.88;3.05;;;;;;;23.88;44.90;100963.13;5096400;28;20079;-70
2023/09/05 10:25:41;;;;;;;6.22;3.13;;;;;;;23.93;44.85;100963.53;5116084;28;20070;-69
2023/09/05 10:28:10;;;;;;;5.72;3.08;;;;;;;23.98;44.85;100971.19;5116053;28;20062;-69
2023/09/05 10:30:43;;;;;;;4.95;3.10;;;;;;;24.03;44.85;100967.97;5115837;28;20043;-68
2023/09/05 10:33:14;;;;;;;5.28;3.10;;;;;;;24.08;44.73;100974.66;5115818;28;20093;-68
2023/09/05 10:35:45;;;;;;;5.57;3.00;;;;;;;24.11;44.63;100966.16;5115606;28;20108;-68
2023/09/05 10:38:19;;;;;;;6.75;3.03;;;;;;;24.13;44.64;100963.28;5115691;28;20044;-69
2023/09/05 10:40:47;;;;;;;5.43;3.00;;;;;;;24.17;44.60;100951.88;5115960;28;20480;-69
2023/09/05 10:43:19;;;;;;;5.82;2.70;;;;;;;24.22;44.52;100956.81;5116006;28;20122;-69
2023/09/05 10:45:55;;;;;;;4.57;2.80;;;;;;;24.28;44.25;100967.09;5115613;28;20087;-69
2023/09/05 10:48:38;;;;;;;6.07;3.00;;;;;;;24.34;44.44;100960.16;5115677;28;20044;-69
2023/09/05 10:51:15;;;;;;;5.10;2.90;;;;;;;24.36;44.12;100953.53;5114724;28;20044;-69
2023/09/05 10:53:47;;;;;;;6.35;2.85;;;;;;;24.43;44.26;100960.03;5115585;28;20049;-69
2023/09/05 10:56:41;;;;;;;5.53;3.00;;;;;;;24.49;43.88;100956.63;5115410;28;20127;-70
2023/09/05 10:59:11;;;;;;;6.45;2.80;;;;;;;24.54;43.80;100946.09;5115542;28;20279;-70
2023/09/05 11:01:48;;;;;;;5.68;2.88;;;;;;;24.60;43.86;100949.16;5115475;28;20047;-70
2023/09/05 11:04:29;;;;;;;6.43;2.85;;;;;;;24.62;44.02;100941.69;5115178;28;20501;-69
2023/09/05 11:07:04;;;;;;;5.15;3.30;;;;;;;24.68;43.98;100946.44;5115180;28;20126;-69
2023/09/05 11:09:48;;;;;;;5.50;2.80;;;;;;;24.73;43.97;100941.38;5115053;28;20075;-69
2023/09/05 11:12:17;;;;;;;4.78;2.80;;;;;;;24.77;43.58;100940.84;5115363;28;20044;-69
2023/09/05 11:14:46;;;;;;;5.90;3.05;;;;;;;24.83;43.69;100939.34;5097226;28;20135;-68
2023/09/05 11:17:15;;;;;;;5.53;2.97;;;;;;;24.89;43.91;100930.47;5114883;28;20043;-69
2023/09/05 11:19:47;;;;;;;4.13;2.63;;;;;;;24.93;43.84;100937.31;5115200;28;20065;-69
2023/09/05 11:22:21;;;;;;;4.95;2.88;;;;;;;24.96;43.42;100931.50;5114770;28;20150;-69
2023/09/05 11:24:58;;;;;;;6.40;2.90;;;;;;;25.03;43.21;100931.72;5114718;28;20052;-69
2023/09/05 11:27:29;;;;;;;7.88;3.20;;;;;;;25.06;43.16;100934.94;5114698;28;20043;-69
2023/09/05 11:30:00;;;;;;;5.97;2.80;;;;;;;25.13;43.45;100939.75;5114382;28;20044;-69
2023/09/05 11:32:31;;;;;;;4.55;2.53;;;;;;;25.18;43.42;100937.34;5114672;28;20075;-68
2023/09/05 11:35:04;;;;;;;7.28;2.80;;;;;;;25.24;43.17;100936.66;5096840;28;20052;-68